sensor_id;sensor_type;location;lat;lon;timestamp;P1;durP1;ratioP1;P2;durP2;ratioP2
85461;SDS011;75865;42.672;23.360;2024-02-14T00:02:42;3.72;;;2.42;;
85461;SDS011;75865;42.672;23.360;2024-02-14T00:05:10;8.27;;;3.85;;
85461;SDS011;75865;42.672;23.360;2024-02-14T00:07:38;6.43;;;3.60;;
85461;SDS011;75865;42.672;23.360;2024-02-14T00:10:06;6.22;;;3.72;;
85461;SDS011;75865;42.672;23.360;2024-02-14T00:12:34;4.82;;;3.33;;
85461;SDS011;75865;42.672;23.360;2024-02-14T00:15:02;5.03;;;3.20;;
85461;SDS011;75865;42.672;23.360;2024-02-14T00:17:29;5.45;;;3.78;;
85461;SDS011;75865;42.672;23.360;2024-02-14T00:19:56;7.35;;;4.20;;
85461;SDS011;75865;42.672;23.360;2024-02-14T00:22:23;4.70;;;3.40;;
85461;SDS011;75865;42.672;23.360;2024-02-14T00:24:50;4.88;;;3.30;;
85461;SDS011;75865;42.672;23.360;2024-02-14T00:27:17;4.70;;;2.72;;
85461;SDS011;75865;42.672;23.360;2024-02-14T00:29:44;5.85;;;3.88;;
85461;SDS011;75865;42.672;23.360;2024-02-14T00:32:13;6.47;;;3.35;;
85461;SDS011;75865;42.672;23.360;2024-02-14T00:34:40;4.95;;;3.50;;
85461;SDS011;75865;42.672;23.360;2024-02-14T00:37:07;6.13;;;3.53;;
85461;SDS011;75865;42.672;23.360;2024-02-14T00:39:34;7.82;;;3.65;;
85461;SDS011;75865;42.672;23.360;2024-02-14T00:42:01;4.68;;;3.15;;
85461;SDS011;75865;42.672;23.360;2024-02-14T00:44:28;5.47;;;3.75;;
85461;SDS011;75865;42.672;23.360;2024-02-14T00:46:56;5.63;;;3.45;;
85461;SDS011;75865;42.672;23.360;2024-02-14T00:49:25;4.88;;;3.28;;
85461;SDS011;75865;42.672;23.360;2024-02-14T00:51:52;4.75;;;2.67;;
85461;SDS011;75865;42.672;23.360;2024-02-14T00:54:20;5.30;;;3.70;;
85461;SDS011;75865;42.672;23.360;2024-02-14T00:56:47;4.68;;;3.20;;
85461;SDS011;75865;42.672;23.360;2024-02-14T00:59:13;5.43;;;3.63;;
85461;SDS011;75865;42.672;23.360;2024-02-14T01:01:40;5.72;;;3.35;;
85461;SDS011;75865;42.672;23.360;2024-02-14T01:04:07;6.47;;;3.25;;
85461;SDS011;75865;42.672;23.360;2024-02-14T01:06:34;5.38;;;3.55;;
85461;SDS011;75865;42.672;23.360;2024-02-14T01:09:01;5.45;;;3.58;;
85461;SDS011;75865;42.672;23.360;2024-02-14T01:11:29;6.60;;;4.30;;
85461;SDS011;75865;42.672;23.360;2024-02-14T01:13:56;7.45;;;3.47;;
85461;SDS011;75865;42.672;23.360;2024-02-14T01:16:24;5.35;;;3.90;;
85461;SDS011;75865;42.672;23.360;2024-02-14T01:18:52;6.18;;;3.65;;
85461;SDS011;75865;42.672;23.360;2024-02-14T01:21:19;4.53;;;3.40;;
85461;SDS011;75865;42.672;23.360;2024-02-14T01:23:46;6.28;;;4.30;;
85461;SDS011;75865;42.672;23.360;2024-02-14T01:26:13;6.05;;;4.03;;
85461;SDS011;75865;42.672;23.360;2024-02-14T01:28:40;5.07;;;3.63;;
85461;SDS011;75865;42.672;23.360;2024-02-14T01:31:10;6.35;;;3.70;;
85461;SDS011;75865;42.672;23.360;2024-02-14T01:33:38;6.95;;;4.15;;
85461;SDS011;75865;42.672;23.360;2024-02-14T01:36:06;6.13;;;3.83;;
85461;SDS011;75865;42.672;23.360;2024-02-14T01:38:33;6.07;;;3.67;;
85461;SDS011;75865;42.672;23.360;2024-02-14T01:41:02;6.22;;;4.18;;
85461;SDS011;75865;42.672;23.360;2024-02-14T01:43:30;5.57;;;3.88;;
85461;SDS011;75865;42.672;23.360;2024-02-14T01:45:58;5.68;;;3.88;;
85461;SDS011;75865;42.672;23.360;2024-02-14T01:48:36;6.35;;;4.13;;
85461;SDS011;75865;42.672;23.360;2024-02-14T01:51:06;6.70;;;4.47;;
85461;SDS011;75865;42.672;23.360;2024-02-14T01:53:36;5.75;;;4.07;;
85461;SDS011;75865;42.672;23.360;2024-02-14T01:56:04;6.07;;;4.30;;
85461;SDS011;75865;42.672;23.360;2024-02-14T01:58:32;5.93;;;4.22;;
85461;SDS011;75865;42.672;23.360;2024-02-14T02:01:01;6.47;;;4.55;;
85461;SDS011;75865;42.672;23.360;2024-02-14T02:03:29;6.53;;;4.57;;
85461;SDS011;75865;42.672;23.360;2024-02-14T02:05:59;6.22;;;3.58;;
85461;SDS011;75865;42.672;23.360;2024-02-14T02:08:26;8.55;;;4.40;;
85461;SDS011;75865;42.672;23.360;2024-02-14T02:10:53;7.35;;;4.72;;
85461;SDS011;75865;42.672;23.360;2024-02-14T02:13:20;5.93;;;3.75;;
85461;SDS011;75865;42.672;23.360;2024-02-14T02:15:47;5.55;;;4.15;;
85461;SDS011;75865;42.672;23.360;2024-02-14T02:18:14;5.57;;;4.15;;
85461;SDS011;75865;42.672;23.360;2024-02-14T02:20:41;10.25;;;4.28;;
85461;SDS011;75865;42.672;23.360;2024-02-14T02:23:11;7.78;;;4.47;;
85461;SDS011;75865;42.672;23.360;2024-02-14T02:25:42;6.53;;;4.40;;
85461;SDS011;75865;42.672;23.360;2024-02-14T02:28:10;6.03;;;3.60;;
85461;SDS011;75865;42.672;23.360;2024-02-14T02:30:37;6.63;;;4.47;;
85461;SDS011;75865;42.672;23.360;2024-02-14T02:33:04;9.40;;;4.88;;
85461;SDS011;75865;42.672;23.360;2024-02-14T02:35:33;6.28;;;3.95;;
85461;SDS011;75865;42.672;23.360;2024-02-14T02:38:01;8.02;;;4.88;;
85461;SDS011;75865;42.672;23.360;2024-02-14T02:40:27;6.35;;;4.28;;
85461;SDS011;75865;42.672;23.360;2024-02-14T02:42:54;7.65;;;4.18;;
85461;SDS011;75865;42.672;23.360;2024-02-14T02:45:21;7.05;;;4.55;;
85461;SDS011;75865;42.672;23.360;2024-02-14T02:47:48;7.30;;;4.50;;
85461;SDS011;75865;42.672;23.360;2024-02-14T02:50:18;5.85;;;4.00;;
85461;SDS011;75865;42.672;23.360;2024-02-14T02:52:46;6.88;;;4.07;;
85461;SDS011;75865;42.672;23.360;2024-02-14T02:55:13;5.68;;;4.45;;
85461;SDS011;75865;42.672;23.360;2024-02-14T02:57:44;8.15;;;4.88;;
85461;SDS011;75865;42.672;23.360;2024-02-14T03:00:12;8.00;;;3.90;;
85461;SDS011;75865;42.672;23.360;2024-02-14T03:02:41;5.57;;;4.05;;
85461;SDS011;75865;42.672;23.360;2024-02-14T03:05:11;6.22;;;3.95;;
85461;SDS011;75865;42.672;23.360;2024-02-14T03:07:45;7.45;;;4.05;;
85461;SDS011;75865;42.672;23.360;2024-02-14T03:10:14;8.25;;;4.80;;
85461;SDS011;75865;42.672;23.360;2024-02-14T03:15:14;7.40;;;4.60;;
85461;SDS011;75865;42.672;23.360;2024-02-14T03:17:42;7.55;;;4.65;;
85461;SDS011;75865;42.672;23.360;2024-02-14T03:20:09;6.55;;;4.20;;
85461;SDS011;75865;42.672;23.360;2024-02-14T03:22:43;5.63;;;3.88;;
85461;SDS011;75865;42.672;23.360;2024-02-14T03:25:18;5.97;;;4.63;;
85461;SDS011;75865;42.672;23.360;2024-02-14T03:27:46;8.23;;;5.07;;
85461;SDS011;75865;42.672;23.360;2024-02-14T03:30:16;9.00;;;5.35;;
85461;SDS011;75865;42.672;23.360;2024-02-14T03:32:44;6.45;;;5.10;;
85461;SDS011;75865;42.672;23.360;2024-02-14T03:35:12;7.88;;;4.70;;
85461;SDS011;75865;42.672;23.360;2024-02-14T03:37:40;6.88;;;4.75;;
85461;SDS011;75865;42.672;23.360;2024-02-14T03:40:08;8.07;;;5.00;;
85461;SDS011;75865;42.672;23.360;2024-02-14T03:42:36;8.60;;;4.97;;
85461;SDS011;75865;42.672;23.360;2024-02-14T03:45:07;6.03;;;4.47;;
85461;SDS011;75865;42.672;23.360;2024-02-14T03:47:34;8.98;;;4.72;;
85461;SDS011;75865;42.672;23.360;2024-02-14T03:50:02;8.18;;;5.07;;
85461;SDS011;75865;42.672;23.360;2024-02-14T03:52:31;8.25;;;4.90;;
85461;SDS011;75865;42.672;23.360;2024-02-14T03:55:01;7.50;;;4.38;;
85461;SDS011;75865;42.672;23.360;2024-02-14T03:57:29;8.40;;;5.05;;
85461;SDS011;75865;42.672;23.360;2024-02-14T03:59:57;6.22;;;4.72;;
85461;SDS011;75865;42.672;23.360;2024-02-14T04:02:25;6.85;;;5.00;;
85461;SDS011;75865;42.672;23.360;2024-02-14T04:04:55;6.68;;;4.93;;
85461;SDS011;75865;42.672;23.360;2024-02-14T04:07:21;7.72;;;5.20;;
85461;SDS011;75865;42.672;23.360;2024-02-14T04:09:48;8.07;;;4.80;;
85461;SDS011;75865;42.672;23.360;2024-02-14T04:12:15;7.68;;;4.40;;
85461;SDS011;75865;42.672;23.360;2024-02-14T04:14:42;8.50;;;5.07;;
85461;SDS011;75865;42.672;23.360;2024-02-14T04:17:09;6.82;;;4.38;;
85461;SDS011;75865;42.672;23.360;2024-02-14T04:19:37;6.95;;;4.38;;
85461;SDS011;75865;42.672;23.360;2024-02-14T04:22:05;7.65;;;5.20;;
85461;SDS011;75865;42.672;23.360;2024-02-14T04:24:35;7.72;;;4.82;;
85461;SDS011;75865;42.672;23.360;2024-02-14T04:27:02;7.50;;;5.32;;
85461;SDS011;75865;42.672;23.360;2024-02-14T04:29:31;8.25;;;5.60;;
85461;SDS011;75865;42.672;23.360;2024-02-14T04:32:00;7.57;;;5.03;;
85461;SDS011;75865;42.672;23.360;2024-02-14T04:34:27;7.13;;;5.05;;
85461;SDS011;75865;42.672;23.360;2024-02-14T04:36:54;7.78;;;4.78;;
85461;SDS011;75865;42.672;23.360;2024-02-14T04:39:21;6.22;;;4.07;;
85461;SDS011;75865;42.672;23.360;2024-02-14T04:41:48;7.78;;;5.70;;
85461;SDS011;75865;42.672;23.360;2024-02-14T04:44:27;9.43;;;5.07;;
85461;SDS011;75865;42.672;23.360;2024-02-14T04:46:55;8.27;;;5.30;;
85461;SDS011;75865;42.672;23.360;2024-02-14T04:49:22;9.07;;;6.32;;
85461;SDS011;75865;42.672;23.360;2024-02-14T04:51:49;5.63;;;3.88;;
85461;SDS011;75865;42.672;23.360;2024-02-14T04:54:17;7.40;;;5.55;;
85461;SDS011;75865;42.672;23.360;2024-02-14T04:56:44;8.93;;;5.90;;
85461;SDS011;75865;42.672;23.360;2024-02-14T04:59:13;9.68;;;5.93;;
85461;SDS011;75865;42.672;23.360;2024-02-14T05:01:40;9.35;;;5.93;;
85461;SDS011;75865;42.672;23.360;2024-02-14T05:04:06;9.10;;;5.90;;
85461;SDS011;75865;42.672;23.360;2024-02-14T05:06:33;11.45;;;6.20;;
85461;SDS011;75865;42.672;23.360;2024-02-14T05:09:00;11.70;;;6.32;;
85461;SDS011;75865;42.672;23.360;2024-02-14T05:11:27;10.43;;;6.35;;
85461;SDS011;75865;42.672;23.360;2024-02-14T05:13:54;11.88;;;6.07;;
85461;SDS011;75865;42.672;23.360;2024-02-14T05:16:21;8.48;;;6.28;;
85461;SDS011;75865;42.672;23.360;2024-02-14T05:18:47;10.52;;;6.50;;
85461;SDS011;75865;42.672;23.360;2024-02-14T05:21:15;8.13;;;5.35;;
85461;SDS011;75865;42.672;23.360;2024-02-14T05:23:45;9.18;;;5.75;;
85461;SDS011;75865;42.672;23.360;2024-02-14T05:26:12;10.27;;;6.05;;
85461;SDS011;75865;42.672;23.360;2024-02-14T05:28:39;10.45;;;6.80;;
85461;SDS011;75865;42.672;23.360;2024-02-14T05:31:06;9.52;;;6.32;;
85461;SDS011;75865;42.672;23.360;2024-02-14T05:33:33;9.95;;;6.82;;
85461;SDS011;75865;42.672;23.360;2024-02-14T05:36:01;11.93;;;6.95;;
85461;SDS011;75865;42.672;23.360;2024-02-14T05:38:28;9.57;;;6.63;;
85461;SDS011;75865;42.672;23.360;2024-02-14T05:40:56;9.10;;;6.78;;
85461;SDS011;75865;42.672;23.360;2024-02-14T05:43:22;13.27;;;6.72;;
85461;SDS011;75865;42.672;23.360;2024-02-14T05:45:49;9.85;;;6.85;;
85461;SDS011;75865;42.672;23.360;2024-02-14T05:48:16;11.60;;;6.60;;
85461;SDS011;75865;42.672;23.360;2024-02-14T05:50:43;9.77;;;6.45;;
85461;SDS011;75865;42.672;23.360;2024-02-14T05:53:10;12.10;;;7.40;;
85461;SDS011;75865;42.672;23.360;2024-02-14T05:55:38;20.83;;;13.85;;
85461;SDS011;75865;42.672;23.360;2024-02-14T05:58:05;10.98;;;7.00;;
85461;SDS011;75865;42.672;23.360;2024-02-14T06:00:32;10.75;;;6.85;;
85461;SDS011;75865;42.672;23.360;2024-02-14T06:03:00;9.98;;;6.75;;
85461;SDS011;75865;42.672;23.360;2024-02-14T06:05:28;11.90;;;7.32;;
85461;SDS011;75865;42.672;23.360;2024-02-14T06:07:55;9.55;;;6.65;;
85461;SDS011;75865;42.672;23.360;2024-02-14T06:10:22;9.02;;;6.15;;
85461;SDS011;75865;42.672;23.360;2024-02-14T06:12:48;8.15;;;5.97;;
85461;SDS011;75865;42.672;23.360;2024-02-14T06:15:16;9.57;;;6.72;;
85461;SDS011;75865;42.672;23.360;2024-02-14T06:17:43;12.30;;;7.22;;
85461;SDS011;75865;42.672;23.360;2024-02-14T06:20:10;9.32;;;6.50;;
85461;SDS011;75865;42.672;23.360;2024-02-14T06:22:39;11.90;;;6.30;;
85461;SDS011;75865;42.672;23.360;2024-02-14T06:25:15;10.38;;;6.40;;
85461;SDS011;75865;42.672;23.360;2024-02-14T06:27:42;9.27;;;6.57;;
85461;SDS011;75865;42.672;23.360;2024-02-14T06:30:09;8.13;;;6.25;;
85461;SDS011;75865;42.672;23.360;2024-02-14T06:32:37;7.47;;;5.45;;
85461;SDS011;75865;42.672;23.360;2024-02-14T06:35:04;10.25;;;6.72;;
85461;SDS011;75865;42.672;23.360;2024-02-14T06:37:31;8.80;;;5.95;;
85461;SDS011;75865;42.672;23.360;2024-02-14T06:40:13;11.23;;;5.85;;
85461;SDS011;75865;42.672;23.360;2024-02-14T06:42:40;8.98;;;6.43;;
85461;SDS011;75865;42.672;23.360;2024-02-14T06:45:07;7.95;;;5.22;;
85461;SDS011;75865;42.672;23.360;2024-02-14T06:47:34;9.20;;;6.00;;
85461;SDS011;75865;42.672;23.360;2024-02-14T06:50:01;9.02;;;5.90;;
85461;SDS011;75865;42.672;23.360;2024-02-14T06:52:27;8.38;;;5.47;;
85461;SDS011;75865;42.672;23.360;2024-02-14T06:54:54;8.30;;;5.90;;
85461;SDS011;75865;42.672;23.360;2024-02-14T06:57:21;8.45;;;6.28;;
85461;SDS011;75865;42.672;23.360;2024-02-14T06:59:48;9.25;;;6.22;;
85461;SDS011;75865;42.672;23.360;2024-02-14T07:02:14;8.05;;;5.55;;
85461;SDS011;75865;42.672;23.360;2024-02-14T07:04:41;7.80;;;5.40;;
85461;SDS011;75865;42.672;23.360;2024-02-14T07:07:08;9.88;;;5.65;;
85461;SDS011;75865;42.672;23.360;2024-02-14T07:09:35;9.10;;;5.70;;
85461;SDS011;75865;42.672;23.360;2024-02-14T07:12:03;6.72;;;4.50;;
85461;SDS011;75865;42.672;23.360;2024-02-14T07:14:31;9.27;;;5.60;;
85461;SDS011;75865;42.672;23.360;2024-02-14T07:16:57;7.35;;;5.10;;
85461;SDS011;75865;42.672;23.360;2024-02-14T07:19:24;11.80;;;5.80;;
85461;SDS011;75865;42.672;23.360;2024-02-14T07:21:51;10.15;;;5.45;;
85461;SDS011;75865;42.672;23.360;2024-02-14T07:24:18;7.40;;;4.00;;
85461;SDS011;75865;42.672;23.360;2024-02-14T07:26:45;7.03;;;5.05;;
85461;SDS011;75865;42.672;23.360;2024-02-14T07:29:12;6.53;;;4.45;;
85461;SDS011;75865;42.672;23.360;2024-02-14T07:31:39;8.40;;;4.70;;
85461;SDS011;75865;42.672;23.360;2024-02-14T07:34:06;8.55;;;4.85;;
85461;SDS011;75865;42.672;23.360;2024-02-14T07:36:35;7.57;;;5.10;;
85461;SDS011;75865;42.672;23.360;2024-02-14T07:39:02;8.90;;;4.70;;
85461;SDS011;75865;42.672;23.360;2024-02-14T07:41:29;6.18;;;3.97;;
85461;SDS011;75865;42.672;23.360;2024-02-14T07:43:57;6.93;;;4.65;;
85461;SDS011;75865;42.672;23.360;2024-02-14T07:46:23;7.53;;;4.63;;
85461;SDS011;75865;42.672;23.360;2024-02-14T07:48:52;8.32;;;5.07;;
85461;SDS011;75865;42.672;23.360;2024-02-14T07:51:20;7.00;;;4.35;;
85461;SDS011;75865;42.672;23.360;2024-02-14T07:53:46;6.22;;;3.17;;
85461;SDS011;75865;42.672;23.360;2024-02-14T07:56:15;6.72;;;4.60;;
85461;SDS011;75865;42.672;23.360;2024-02-14T07:58:44;6.22;;;4.63;;
85461;SDS011;75865;42.672;23.360;2024-02-14T08:01:11;8.20;;;5.13;;
85461;SDS011;75865;42.672;23.360;2024-02-14T08:03:39;13.65;;;5.63;;
85461;SDS011;75865;42.672;23.360;2024-02-14T08:06:07;7.63;;;4.63;;
85461;SDS011;75865;42.672;23.360;2024-02-14T08:08:34;6.00;;;4.50;;
85461;SDS011;75865;42.672;23.360;2024-02-14T08:11:01;7.13;;;4.82;;
85461;SDS011;75865;42.672;23.360;2024-02-14T08:13:28;7.45;;;5.07;;
85461;SDS011;75865;42.672;23.360;2024-02-14T08:15:55;8.65;;;4.75;;
85461;SDS011;75865;42.672;23.360;2024-02-14T08:18:22;7.50;;;4.53;;
85461;SDS011;75865;42.672;23.360;2024-02-14T08:20:49;8.82;;;5.10;;
85461;SDS011;75865;42.672;23.360;2024-02-14T08:23:16;6.10;;;4.80;;
85461;SDS011;75865;42.672;23.360;2024-02-14T08:25:43;6.72;;;5.18;;
85461;SDS011;75865;42.672;23.360;2024-02-14T08:28:10;6.53;;;4.78;;
85461;SDS011;75865;42.672;23.360;2024-02-14T08:30:37;6.68;;;5.25;;
85461;SDS011;75865;42.672;23.360;2024-02-14T08:33:04;7.70;;;4.88;;
85461;SDS011;75865;42.672;23.360;2024-02-14T08:35:31;8.43;;;5.18;;
85461;SDS011;75865;42.672;23.360;2024-02-14T08:38:00;8.13;;;4.65;;
85461;SDS011;75865;42.672;23.360;2024-02-14T08:40:27;5.95;;;4.25;;
85461;SDS011;75865;42.672;23.360;2024-02-14T08:42:53;7.25;;;5.10;;
85461;SDS011;75865;42.672;23.360;2024-02-14T08:45:20;7.13;;;4.93;;
85461;SDS011;75865;42.672;23.360;2024-02-14T08:47:47;9.07;;;4.60;;
85461;SDS011;75865;42.672;23.360;2024-02-14T08:50:14;7.72;;;4.55;;
85461;SDS011;75865;42.672;23.360;2024-02-14T08:52:41;13.18;;;4.75;;
85461;SDS011;75865;42.672;23.360;2024-02-14T08:55:08;7.82;;;5.10;;
85461;SDS011;75865;42.672;23.360;2024-02-14T08:57:41;5.95;;;4.10;;
85461;SDS011;75865;42.672;23.360;2024-02-14T09:00:08;7.63;;;4.57;;
85461;SDS011;75865;42.672;23.360;2024-02-14T09:02:38;8.50;;;4.63;;
85461;SDS011;75865;42.672;23.360;2024-02-14T09:05:05;7.65;;;4.60;;
85461;SDS011;75865;42.672;23.360;2024-02-14T09:07:32;7.18;;;4.40;;
85461;SDS011;75865;42.672;23.360;2024-02-14T09:10:00;6.47;;;4.82;;
85461;SDS011;75865;42.672;23.360;2024-02-14T09:12:27;9.88;;;4.70;;
85461;SDS011;75865;42.672;23.360;2024-02-14T09:14:53;8.23;;;4.55;;
85461;SDS011;75865;42.672;23.360;2024-02-14T09:17:20;7.45;;;4.82;;
85461;SDS011;75865;42.672;23.360;2024-02-14T09:19:47;9.98;;;4.95;;
85461;SDS011;75865;42.672;23.360;2024-02-14T09:22:14;10.20;;;4.57;;
85461;SDS011;75865;42.672;23.360;2024-02-14T09:24:47;6.28;;;4.63;;
85461;SDS011;75865;42.672;23.360;2024-02-14T09:27:15;6.90;;;4.20;;
85461;SDS011;75865;42.672;23.360;2024-02-14T09:29:42;9.20;;;4.70;;
85461;SDS011;75865;42.672;23.360;2024-02-14T09:32:09;6.82;;;4.15;;
85461;SDS011;75865;42.672;23.360;2024-02-14T09:34:36;8.32;;;3.95;;
85461;SDS011;75865;42.672;23.360;2024-02-14T09:37:04;6.78;;;4.38;;
85461;SDS011;75865;42.672;23.360;2024-02-14T09:39:32;4.55;;;3.60;;
85461;SDS011;75865;42.672;23.360;2024-02-14T09:42:08;9.05;;;4.53;;
85461;SDS011;75865;42.672;23.360;2024-02-14T09:44:39;5.60;;;4.00;;
85461;SDS011;75865;42.672;23.360;2024-02-14T09:47:07;6.97;;;4.47;;
85461;SDS011;75865;42.672;23.360;2024-02-14T09:49:35;7.60;;;4.07;;
85461;SDS011;75865;42.672;23.360;2024-02-14T09:54:32;6.72;;;4.20;;
85461;SDS011;75865;42.672;23.360;2024-02-14T09:57:04;6.03;;;4.47;;
85461;SDS011;75865;42.672;23.360;2024-02-14T09:59:32;6.00;;;4.25;;
85461;SDS011;75865;42.672;23.360;2024-02-14T10:02:00;6.03;;;4.00;;
85461;SDS011;75865;42.672;23.360;2024-02-14T10:04:29;7.72;;;4.60;;
85461;SDS011;75865;42.672;23.360;2024-02-14T10:06:56;8.57;;;4.55;;
85461;SDS011;75865;42.672;23.360;2024-02-14T10:09:25;7.38;;;4.65;;
85461;SDS011;75865;42.672;23.360;2024-02-14T10:11:52;6.05;;;4.15;;
85461;SDS011;75865;42.672;23.360;2024-02-14T10:14:19;5.75;;;4.45;;
85461;SDS011;75865;42.672;23.360;2024-02-14T10:16:46;8.75;;;4.55;;
85461;SDS011;75865;42.672;23.360;2024-02-14T10:19:16;8.55;;;4.53;;
85461;SDS011;75865;42.672;23.360;2024-02-14T10:21:54;7.35;;;4.65;;
85461;SDS011;75865;42.672;23.360;2024-02-14T10:24:25;5.72;;;3.70;;
85461;SDS011;75865;42.672;23.360;2024-02-14T10:26:54;8.13;;;4.55;;
85461;SDS011;75865;42.672;23.360;2024-02-14T10:29:24;6.10;;;4.13;;
85461;SDS011;75865;42.672;23.360;2024-02-14T10:31:52;4.68;;;3.63;;
85461;SDS011;75865;42.672;23.360;2024-02-14T10:34:20;5.45;;;3.83;;
85461;SDS011;75865;42.672;23.360;2024-02-14T10:36:52;7.03;;;3.63;;
85461;SDS011;75865;42.672;23.360;2024-02-14T10:39:22;5.82;;;4.10;;
85461;SDS011;75865;42.672;23.360;2024-02-14T10:41:52;7.97;;;4.13;;
85461;SDS011;75865;42.672;23.360;2024-02-14T10:44:20;5.65;;;3.38;;
85461;SDS011;75865;42.672;23.360;2024-02-14T10:46:47;5.53;;;3.67;;
85461;SDS011;75865;42.672;23.360;2024-02-14T10:49:17;5.55;;;3.95;;
85461;SDS011;75865;42.672;23.360;2024-02-14T10:51:47;7.90;;;4.15;;
85461;SDS011;75865;42.672;23.360;2024-02-14T10:54:16;5.38;;;3.70;;
85461;SDS011;75865;42.672;23.360;2024-02-14T10:56:48;4.75;;;3.47;;
85461;SDS011;75865;42.672;23.360;2024-02-14T10:59:19;6.75;;;4.18;;
85461;SDS011;75865;42.672;23.360;2024-02-14T11:01:47;6.05;;;4.15;;
85461;SDS011;75865;42.672;23.360;2024-02-14T11:04:16;6.30;;;3.95;;
85461;SDS011;75865;42.672;23.360;2024-02-14T11:06:48;5.82;;;4.43;;
85461;SDS011;75865;42.672;23.360;2024-02-14T11:09:19;6.07;;;4.05;;
85461;SDS011;75865;42.672;23.360;2024-02-14T11:11:46;5.97;;;4.38;;
85461;SDS011;75865;42.672;23.360;2024-02-14T11:14:17;2.85;;;2.17;;
85461;SDS011;75865;42.672;23.360;2024-02-14T11:16:48;6.22;;;4.00;;
85461;SDS011;75865;42.672;23.360;2024-02-14T11:19:18;6.75;;;3.78;;
85461;SDS011;75865;42.672;23.360;2024-02-14T11:21:46;5.78;;;3.80;;
85461;SDS011;75865;42.672;23.360;2024-02-14T11:24:15;5.85;;;3.72;;
85461;SDS011;75865;42.672;23.360;2024-02-14T11:26:50;9.13;;;3.75;;
85461;SDS011;75865;42.672;23.360;2024-02-14T11:29:18;6.43;;;3.85;;
85461;SDS011;75865;42.672;23.360;2024-02-14T11:31:57;5.20;;;3.47;;
85461;SDS011;75865;42.672;23.360;2024-02-14T11:34:26;7.90;;;4.13;;
85461;SDS011;75865;42.672;23.360;2024-02-14T11:36:53;8.18;;;4.50;;
85461;SDS011;75865;42.672;23.360;2024-02-14T11:39:20;6.07;;;4.50;;
85461;SDS011;75865;42.672;23.360;2024-02-14T11:41:47;9.27;;;4.60;;
85461;SDS011;75865;42.672;23.360;2024-02-14T11:44:14;6.65;;;4.95;;
85461;SDS011;75865;42.672;23.360;2024-02-14T11:46:41;7.10;;;4.00;;
85461;SDS011;75865;42.672;23.360;2024-02-14T11:49:08;6.95;;;3.85;;
85461;SDS011;75865;42.672;23.360;2024-02-14T11:51:36;5.85;;;3.92;;
85461;SDS011;75865;42.672;23.360;2024-02-14T11:54:03;5.63;;;4.15;;
85461;SDS011;75865;42.672;23.360;2024-02-14T11:59:00;8.63;;;4.47;;
85461;SDS011;75865;42.672;23.360;2024-02-14T12:01:33;10.15;;;4.20;;
85461;SDS011;75865;42.672;23.360;2024-02-14T12:04:06;7.00;;;4.10;;
85461;SDS011;75865;42.672;23.360;2024-02-14T12:06:38;6.80;;;3.95;;
85461;SDS011;75865;42.672;23.360;2024-02-14T12:09:08;8.73;;;4.97;;
85461;SDS011;75865;42.672;23.360;2024-02-14T12:11:36;5.43;;;3.78;;
85461;SDS011;75865;42.672;23.360;2024-02-14T12:14:07;5.38;;;3.75;;
85461;SDS011;75865;42.672;23.360;2024-02-14T12:16:36;4.97;;;3.72;;
85461;SDS011;75865;42.672;23.360;2024-02-14T12:19:04;6.22;;;3.83;;
85461;SDS011;75865;42.672;23.360;2024-02-14T12:21:37;6.07;;;3.88;;
85461;SDS011;75865;42.672;23.360;2024-02-14T12:24:08;6.85;;;4.20;;
85461;SDS011;75865;42.672;23.360;2024-02-14T12:26:42;7.10;;;4.57;;
85461;SDS011;75865;42.672;23.360;2024-02-14T12:29:11;10.45;;;4.47;;
85461;SDS011;75865;42.672;23.360;2024-02-14T12:31:40;8.25;;;4.80;;
85461;SDS011;75865;42.672;23.360;2024-02-14T12:34:10;6.47;;;4.45;;
85461;SDS011;75865;42.672;23.360;2024-02-14T12:36:39;7.30;;;4.63;;
85461;SDS011;75865;42.672;23.360;2024-02-14T12:39:05;7.25;;;4.32;;
85461;SDS011;75865;42.672;23.360;2024-02-14T12:41:33;7.32;;;4.88;;
85461;SDS011;75865;42.672;23.360;2024-02-14T12:44:02;6.22;;;4.30;;
85461;SDS011;75865;42.672;23.360;2024-02-14T12:46:28;8.35;;;3.80;;
85461;SDS011;75865;42.672;23.360;2024-02-14T12:48:56;7.43;;;3.90;;
85461;SDS011;75865;42.672;23.360;2024-02-14T12:51:23;8.93;;;5.03;;
85461;SDS011;75865;42.672;23.360;2024-02-14T12:53:55;5.75;;;3.85;;
85461;SDS011;75865;42.672;23.360;2024-02-14T12:56:22;9.48;;;4.85;;
85461;SDS011;75865;42.672;23.360;2024-02-14T12:58:50;8.30;;;4.82;;
85461;SDS011;75865;42.672;23.360;2024-02-14T13:01:17;7.35;;;4.35;;
85461;SDS011;75865;42.672;23.360;2024-02-14T13:03:45;8.75;;;4.75;;
85461;SDS011;75865;42.672;23.360;2024-02-14T13:06:13;6.15;;;4.10;;
85461;SDS011;75865;42.672;23.360;2024-02-14T13:08:42;6.70;;;4.60;;
85461;SDS011;75865;42.672;23.360;2024-02-14T13:11:09;6.63;;;4.40;;
85461;SDS011;75865;42.672;23.360;2024-02-14T13:13:36;5.97;;;4.03;;
85461;SDS011;75865;42.672;23.360;2024-02-14T13:16:03;5.75;;;4.00;;
85461;SDS011;75865;42.672;23.360;2024-02-14T13:18:33;5.65;;;4.47;;
85461;SDS011;75865;42.672;23.360;2024-02-14T13:21:02;6.88;;;3.63;;
85461;SDS011;75865;42.672;23.360;2024-02-14T13:23:29;8.52;;;3.97;;
85461;SDS011;75865;42.672;23.360;2024-02-14T13:25:56;5.65;;;3.78;;
85461;SDS011;75865;42.672;23.360;2024-02-14T13:28:23;5.15;;;4.15;;
85461;SDS011;75865;42.672;23.360;2024-02-14T13:30:50;5.60;;;4.03;;
85461;SDS011;75865;42.672;23.360;2024-02-14T13:33:21;6.88;;;4.18;;
85461;SDS011;75865;42.672;23.360;2024-02-14T13:35:48;6.55;;;3.88;;
85461;SDS011;75865;42.672;23.360;2024-02-14T13:38:15;4.85;;;3.70;;
85461;SDS011;75865;42.672;23.360;2024-02-14T13:40:43;5.53;;;3.60;;
85461;SDS011;75865;42.672;23.360;2024-02-14T13:43:10;8.32;;;4.32;;
85461;SDS011;75865;42.672;23.360;2024-02-14T13:45:41;7.38;;;4.25;;
85461;SDS011;75865;42.672;23.360;2024-02-14T13:48:10;6.47;;;3.80;;
85461;SDS011;75865;42.672;23.360;2024-02-14T13:50:38;6.35;;;4.18;;
85461;SDS011;75865;42.672;23.360;2024-02-14T13:53:08;12.85;;;3.97;;
85461;SDS011;75865;42.672;23.360;2024-02-14T13:55:35;7.32;;;3.95;;
85461;SDS011;75865;42.672;23.360;2024-02-14T13:58:01;7.40;;;3.92;;
85461;SDS011;75865;42.672;23.360;2024-02-14T14:00:28;5.78;;;3.90;;
85461;SDS011;75865;42.672;23.360;2024-02-14T14:02:55;8.07;;;3.85;;
85461;SDS011;75865;42.672;23.360;2024-02-14T14:05:22;5.93;;;3.83;;
85461;SDS011;75865;42.672;23.360;2024-02-14T14:07:49;6.40;;;4.07;;
85461;SDS011;75865;42.672;23.360;2024-02-14T14:10:24;8.15;;;4.25;;
85461;SDS011;75865;42.672;23.360;2024-02-14T14:12:53;10.07;;;4.40;;
85461;SDS011;75865;42.672;23.360;2024-02-14T14:15:20;6.85;;;3.88;;
85461;SDS011;75865;42.672;23.360;2024-02-14T14:17:52;9.48;;;4.03;;
85461;SDS011;75865;42.672;23.360;2024-02-14T14:20:19;5.88;;;3.97;;
85461;SDS011;75865;42.672;23.360;2024-02-14T14:22:47;6.10;;;4.38;;
85461;SDS011;75865;42.672;23.360;2024-02-14T14:25:14;6.93;;;4.68;;
85461;SDS011;75865;42.672;23.360;2024-02-14T14:27:41;7.93;;;4.35;;
85461;SDS011;75865;42.672;23.360;2024-02-14T14:30:09;8.02;;;4.43;;
85461;SDS011;75865;42.672;23.360;2024-02-14T14:32:36;7.82;;;4.07;;
85461;SDS011;75865;42.672;23.360;2024-02-14T14:35:04;8.73;;;4.15;;
85461;SDS011;75865;42.672;23.360;2024-02-14T14:37:30;12.68;;;5.68;;
85461;SDS011;75865;42.672;23.360;2024-02-14T14:39:57;5.78;;;3.88;;
85461;SDS011;75865;42.672;23.360;2024-02-14T14:42:27;6.13;;;4.13;;
85461;SDS011;75865;42.672;23.360;2024-02-14T14:44:54;11.10;;;3.88;;
85461;SDS011;75865;42.672;23.360;2024-02-14T14:47:21;7.45;;;4.10;;